sensor_id;sensor_type;location;lat;lon;timestamp;temperature;humidity
23251;DHT22;11794;49.730;10.088;2022-12-15T00:01:28;-4.70;99.90
23251;DHT22;11794;49.730;10.088;2022-12-15T00:04:12;-4.70;99.90
23251;DHT22;11794;49.730;10.088;2022-12-15T00:06:56;-4.70;99.90
23251;DHT22;11794;49.730;10.088;2022-12-15T00:09:40;-4.50;99.90
23251;DHT22;11794;49.730;10.088;2022-12-15T00:12:24;-4.50;99.90
23251;DHT22;11794;49.730;10.088;2022-12-15T00:15:08;-4.60;99.90
23251;DHT22;11794;49.730;10.088;2022-12-15T00:17:52;-4.50;99.90
23251;DHT22;11794;49.730;10.088;2022-12-15T00:20:37;-4.50;99.90
23251;DHT22;11794;49.730;10.088;2022-12-15T00:23:21;-4.60;99.90
23251;DHT22;11794;49.730;10.088;2022-12-15T00:26:05;-4.60;99.90
23251;DHT22;11794;49.730;10.088;2022-12-15T00:28:49;-4.70;99.90
23251;DHT22;11794;49.730;10.088;2022-12-15T00:31:33;-4.60;99.90
23251;DHT22;11794;49.730;10.088;2022-12-15T00:34:17;-4.60;99.90
23251;DHT22;11794;49.730;10.088;2022-12-15T00:37:01;-4.50;99.90
23251;DHT22;11794;49.730;10.088;2022-12-15T00:39:45;-4.40;99.90
23251;DHT22;11794;49.730;10.088;2022-12-15T00:42:10;-4.40;99.90
23251;DHT22;11794;49.730;10.088;2022-12-15T00:44:36;-4.40;99.90
23251;DHT22;11794;49.730;10.088;2022-12-15T00:47:03;-4.30;99.90
23251;DHT22;11794;49.730;10.088;2022-12-15T00:49:29;-4.40;99.90
23251;DHT22;11794;49.730;10.088;2022-12-15T00:52:15;-4.30;99.90
23251;DHT22;11794;49.730;10.088;2022-12-15T00:54:59;-4.30;99.90
23251;DHT22;11794;49.730;10.088;2022-12-15T00:57:44;-4.30;99.90
23251;DHT22;11794;49.730;10.088;2022-12-15T01:00:29;-4.40;99.90
23251;DHT22;11794;49.730;10.088;2022-12-15T01:03:19;-4.40;99.90
23251;DHT22;11794;49.730;10.088;2022-12-15T01:06:07;-4.30;99.90
23251;DHT22;11794;49.730;10.088;2022-12-15T01:08:52;-4.40;99.90
23251;DHT22;11794;49.730;10.088;2022-12-15T01:11:36;-4.50;99.90
23251;DHT22;11794;49.730;10.088;2022-12-15T01:14:21;-4.50;99.90
23251;DHT22;11794;49.730;10.088;2022-12-15T01:17:05;-4.50;99.90
23251;DHT22;11794;49.730;10.088;2022-12-15T01:19:49;-4.50;99.90
23251;DHT22;11794;49.730;10.088;2022-12-15T01:22:35;-4.50;99.90
23251;DHT22;11794;49.730;10.088;2022-12-15T01:25:01;-4.50;99.90
23251;DHT22;11794;49.730;10.088;2022-12-15T01:27:27;-4.50;99.90
23251;DHT22;11794;49.730;10.088;2022-12-15T01:29:52;-4.50;99.90
23251;DHT22;11794;49.730;10.088;2022-12-15T01:32:18;-4.50;99.90
23251;DHT22;11794;49.730;10.088;2022-12-15T01:34:43;-4.50;99.90
23251;DHT22;11794;49.730;10.088;2022-12-15T01:37:09;-4.40;99.90
23251;DHT22;11794;49.730;10.088;2022-12-15T01:39:34;-4.40;99.90
23251;DHT22;11794;49.730;10.088;2022-12-15T01:42:19;-4.50;99.90
23251;DHT22;11794;49.730;10.088;2022-12-15T01:44:49;-4.50;99.90
23251;DHT22;11794;49.730;10.088;2022-12-15T01:47:15;-4.30;99.90
23251;DHT22;11794;49.730;10.088;2022-12-15T01:49:42;-4.40;99.90
23251;DHT22;11794;49.730;10.088;2022-12-15T01:52:08;-4.30;99.90
23251;DHT22;11794;49.730;10.088;2022-12-15T01:54:48;-4.30;99.90
23251;DHT22;11794;49.730;10.088;2022-12-15T01:57:19;-4.30;99.90
23251;DHT22;11794;49.730;10.088;2022-12-15T01:59:49;-4.30;99.90
23251;DHT22;11794;49.730;10.088;2022-12-15T02:02:16;-4.40;99.90
23251;DHT22;11794;49.730;10.088;2022-12-15T02:04:44;-4.30;99.90
23251;DHT22;11794;49.730;10.088;2022-12-15T02:07:14;-4.40;99.90
23251;DHT22;11794;49.730;10.088;2022-12-15T02:09:40;-4.40;99.90
23251;DHT22;11794;49.730;10.088;2022-12-15T02:12:32;-4.40;99.90
23251;DHT22;11794;49.730;10.088;2022-12-15T02:15:32;-4.30;99.90
23251;DHT22;11794;49.730;10.088;2022-12-15T02:18:00;-4.20;99.90
23251;DHT22;11794;49.730;10.088;2022-12-15T02:20:46;-4.30;99.90
23251;DHT22;11794;49.730;10.088;2022-12-15T02:24:11;-4.40;99.90
23251;DHT22;11794;49.730;10.088;2022-12-15T02:26:59;-4.40;99.90
23251;DHT22;11794;49.730;10.088;2022-12-15T02:33:00;-4.30;99.90
23251;DHT22;11794;49.730;10.088;2022-12-15T02:35:35;-4.40;99.90
23251;DHT22;11794;49.730;10.088;2022-12-15T02:38:02;-4.30;99.90
23251;DHT22;11794;49.730;10.088;2022-12-15T02:40:28;-4.30;99.90
23251;DHT22;11794;49.730;10.088;2022-12-15T02:42:56;-4.30;99.90
23251;DHT22;11794;49.730;10.088;2022-12-15T02:59:57;-4.10;99.90
23251;DHT22;11794;49.730;10.088;2022-12-15T03:02:29;-4.10;99.90
23251;DHT22;11794;49.730;10.088;2022-12-15T03:04:56;-4.10;99.90
23251;DHT22;11794;49.730;10.088;2022-12-15T03:07:23;-4.10;99.90
23251;DHT22;11794;49.730;10.088;2022-12-15T03:09:51;-4.10;99.90
23251;DHT22;11794;49.730;10.088;2022-12-15T03:12:16;-4.00;99.90
23251;DHT22;11794;49.730;10.088;2022-12-15T03:14:42;-4.00;99.90
23251;DHT22;11794;49.730;10.088;2022-12-15T03:17:08;-4.00;99.90
23251;DHT22;11794;49.730;10.088;2022-12-15T03:19:33;-4.00;99.90
23251;DHT22;11794;49.730;10.088;2022-12-15T03:21:59;-4.00;99.90
23251;DHT22;11794;49.730;10.088;2022-12-15T03:24:25;-3.90;99.90
23251;DHT22;11794;49.730;10.088;2022-12-15T03:26:50;-3.90;99.90
23251;DHT22;11794;49.730;10.088;2022-12-15T03:29:16;-3.90;99.90
23251;DHT22;11794;49.730;10.088;2022-12-15T03:31:42;-3.90;99.90
23251;DHT22;11794;49.730;10.088;2022-12-15T03:34:09;-3.90;99.90
23251;DHT22;11794;49.730;10.088;2022-12-15T03:36:34;-3.90;99.90
23251;DHT22;11794;49.730;10.088;2022-12-15T03:39:00;-3.90;99.90
23251;DHT22;11794;49.730;10.088;2022-12-15T03:41:25;-3.90;99.90
23251;DHT22;11794;49.730;10.088;2022-12-15T03:43:51;-4.00;99.90
23251;DHT22;11794;49.730;10.088;2022-12-15T03:46:16;-3.90;99.90
23251;DHT22;11794;49.730;10.088;2022-12-15T03:48:42;-3.80;99.90
23251;DHT22;11794;49.730;10.088;2022-12-15T03:51:07;-3.70;99.90
23251;DHT22;11794;49.730;10.088;2022-12-15T03:53:33;-3.80;99.90
23251;DHT22;11794;49.730;10.088;2022-12-15T03:55:58;-3.80;99.90
23251;DHT22;11794;49.730;10.088;2022-12-15T03:58:24;-3.90;99.90
23251;DHT22;11794;49.730;10.088;2022-12-15T04:00:49;-3.90;99.90
23251;DHT22;11794;49.730;10.088;2022-12-15T04:03:15;-3.80;99.90
23251;DHT22;11794;49.730;10.088;2022-12-15T04:05:40;-3.80;99.90
23251;DHT22;11794;49.730;10.088;2022-12-15T04:08:06;-3.70;99.90
23251;DHT22;11794;49.730;10.088;2022-12-15T04:10:34;-3.70;99.90
23251;DHT22;11794;49.730;10.088;2022-12-15T04:13:04;-3.70;99.90
23251;DHT22;11794;49.730;10.088;2022-12-15T04:15:31;-3.70;99.90
23251;DHT22;11794;49.730;10.088;2022-12-15T04:17:56;-3.70;99.90
23251;DHT22;11794;49.730;10.088;2022-12-15T04:20:23;-3.80;99.90
23251;DHT22;11794;49.730;10.088;2022-12-15T04:22:49;-3.80;99.90
23251;DHT22;11794;49.730;10.088;2022-12-15T04:25:20;-3.70;99.90
23251;DHT22;11794;49.730;10.088;2022-12-15T04:28:05;-3.70;99.90
23251;DHT22;11794;49.730;10.088;2022-12-15T04:33:56;-3.70;99.90
23251;DHT22;11794;49.730;10.088;2022-12-15T04:36:43;-3.70;99.90
23251;DHT22;11794;49.730;10.088;2022-12-15T04:39:28;-3.70;99.90
23251;DHT22;11794;49.730;10.088;2022-12-15T04:42:12;-3.80;99.90
23251;DHT22;11794;49.730;10.088;2022-12-15T04:45:00;-3.80;99.90
23251;DHT22;11794;49.730;10.088;2022-12-15T04:47:45;-3.80;99.90
23251;DHT22;11794;49.730;10.088;2022-12-15T04:50:29;-3.80;99.90
23251;DHT22;11794;49.730;10.088;2022-12-15T04:53:15;-3.80;99.90
23251;DHT22;11794;49.730;10.088;2022-12-15T04:56:00;-3.80;99.90
23251;DHT22;11794;49.730;10.088;2022-12-15T04:58:44;-3.90;99.90
23251;DHT22;11794;49.730;10.088;2022-12-15T05:01:28;-4.00;99.90
23251;DHT22;11794;49.730;10.088;2022-12-15T05:04:12;-4.10;99.90
23251;DHT22;11794;49.730;10.088;2022-12-15T05:06:56;-4.00;99.90
23251;DHT22;11794;49.730;10.088;2022-12-15T05:09:41;-4.10;99.90
23251;DHT22;11794;49.730;10.088;2022-12-15T05:12:25;-4.10;99.90
23251;DHT22;11794;49.730;10.088;2022-12-15T05:15:09;-4.20;99.90
23251;DHT22;11794;49.730;10.088;2022-12-15T05:17:53;-4.20;99.90
23251;DHT22;11794;49.730;10.088;2022-12-15T05:20:37;-4.30;99.90
23251;DHT22;11794;49.730;10.088;2022-12-15T05:23:21;-4.30;99.90
23251;DHT22;11794;49.730;10.088;2022-12-15T05:26:05;-4.30;99.90
23251;DHT22;11794;49.730;10.088;2022-12-15T05:28:49;-4.30;99.90
23251;DHT22;11794;49.730;10.088;2022-12-15T05:31:34;-4.30;99.90
23251;DHT22;11794;49.730;10.088;2022-12-15T05:34:23;-4.40;99.90
23251;DHT22;11794;49.730;10.088;2022-12-15T05:36:51;-4.50;99.90
23251;DHT22;11794;49.730;10.088;2022-12-15T05:39:17;-4.40;99.90
23251;DHT22;11794;49.730;10.088;2022-12-15T05:41:42;-4.40;99.90
23251;DHT22;11794;49.730;10.088;2022-12-15T05:44:08;-4.40;99.90
23251;DHT22;11794;49.730;10.088;2022-12-15T05:46:34;-4.40;99.90
23251;DHT22;11794;49.730;10.088;2022-12-15T05:49:05;-4.40;99.90
23251;DHT22;11794;49.730;10.088;2022-12-15T05:51:32;-4.30;99.90
23251;DHT22;11794;49.730;10.088;2022-12-15T05:53:57;-4.40;99.90
23251;DHT22;11794;49.730;10.088;2022-12-15T05:56:24;-4.40;99.90
23251;DHT22;11794;49.730;10.088;2022-12-15T05:58:50;-4.40;99.90
23251;DHT22;11794;49.730;10.088;2022-12-15T06:01:17;-4.40;99.90
23251;DHT22;11794;49.730;10.088;2022-12-15T06:03:42;-4.40;99.90
23251;DHT22;11794;49.730;10.088;2022-12-15T06:06:09;-4.40;99.90
23251;DHT22;11794;49.730;10.088;2022-12-15T06:08:38;-4.40;99.90
23251;DHT22;11794;49.730;10.088;2022-12-15T06:11:04;-4.50;99.90
23251;DHT22;11794;49.730;10.088;2022-12-15T06:13:31;-4.50;99.90
23251;DHT22;11794;49.730;10.088;2022-12-15T06:16:04;-4.40;99.90
23251;DHT22;11794;49.730;10.088;2022-12-15T06:18:35;-4.50;99.90
23251;DHT22;11794;49.730;10.088;2022-12-15T06:21:07;-4.50;99.90
23251;DHT22;11794;49.730;10.088;2022-12-15T06:23:34;-4.50;99.90
23251;DHT22;11794;49.730;10.088;2022-12-15T06:26:17;-4.50;99.90
23251;DHT22;11794;49.730;10.088;2022-12-15T06:28:43;-4.50;99.90
23251;DHT22;11794;49.730;10.088;2022-12-15T06:31:10;-4.60;99.90
23251;DHT22;11794;49.730;10.088;2022-12-15T06:33:36;-4.70;99.90
23251;DHT22;11794;49.730;10.088;2022-12-15T06:36:21;-4.80;99.90
23251;DHT22;11794;49.730;10.088;2022-12-15T06:38:49;-4.80;99.90
23251;DHT22;11794;49.730;10.088;2022-12-15T06:41:17;-4.80;99.90
23251;DHT22;11794;49.730;10.088;2022-12-15T06:43:48;-4.90;99.90
23251;DHT22;11794;49.730;10.088;2022-12-15T06:46:14;-5.00;99.90
23251;DHT22;11794;49.730;10.088;2022-12-15T06:48:39;-5.10;99.90
23251;DHT22;11794;49.730;10.088;2022-12-15T06:51:06;-5.10;99.90
23251;DHT22;11794;49.730;10.088;2022-12-15T06:53:36;-5.30;99.90
23251;DHT22;11794;49.730;10.088;2022-12-15T06:56:04;-5.30;99.90
23251;DHT22;11794;49.730;10.088;2022-12-15T06:58:31;-5.30;99.90
23251;DHT22;11794;49.730;10.088;2022-12-15T07:00:57;-5.40;99.90
23251;DHT22;11794;49.730;10.088;2022-12-15T07:03:23;-5.50;99.90
23251;DHT22;11794;49.730;10.088;2022-12-15T07:06:03;-5.50;99.90
23251;DHT22;11794;49.730;10.088;2022-12-15T07:08:29;-5.60;99.90
23251;DHT22;11794;49.730;10.088;2022-12-15T07:10:55;-5.70;99.90
23251;DHT22;11794;49.730;10.088;2022-12-15T07:13:21;-5.70;99.90
23251;DHT22;11794;49.730;10.088;2022-12-15T07:15:47;-5.70;99.90
23251;DHT22;11794;49.730;10.088;2022-12-15T07:18:15;-5.80;99.90
23251;DHT22;11794;49.730;10.088;2022-12-15T07:20:41;-5.90;99.90
23251;DHT22;11794;49.730;10.088;2022-12-15T07:23:06;-5.90;99.90
23251;DHT22;11794;49.730;10.088;2022-12-15T07:25:38;-6.00;99.90
23251;DHT22;11794;49.730;10.088;2022-12-15T07:28:04;-5.90;99.90
23251;DHT22;11794;49.730;10.088;2022-12-15T07:30:30;-6.00;99.90
23251;DHT22;11794;49.730;10.088;2022-12-15T07:32:56;-6.10;99.90
23251;DHT22;11794;49.730;10.088;2022-12-15T07:35:22;-6.20;99.90
23251;DHT22;11794;49.730;10.088;2022-12-15T07:37:47;-6.20;99.90
23251;DHT22;11794;49.730;10.088;2022-12-15T07:40:13;-6.30;99.90
23251;DHT22;11794;49.730;10.088;2022-12-15T07:42:39;-6.40;99.90
23251;DHT22;11794;49.730;10.088;2022-12-15T07:45:04;-6.40;99.90
23251;DHT22;11794;49.730;10.088;2022-12-15T07:47:31;-6.50;99.90
23251;DHT22;11794;49.730;10.088;2022-12-15T07:49:56;-6.50;99.90
23251;DHT22;11794;49.730;10.088;2022-12-15T07:52:22;-6.40;99.90
23251;DHT22;11794;49.730;10.088;2022-12-15T07:54:48;-6.30;99.90
23251;DHT22;11794;49.730;10.088;2022-12-15T07:57:14;-6.20;99.90
23251;DHT22;11794;49.730;10.088;2022-12-15T07:59:40;-6.10;99.90
23251;DHT22;11794;49.730;10.088;2022-12-15T08:02:07;-6.00;99.90
23251;DHT22;11794;49.730;10.088;2022-12-15T08:04:33;-5.80;99.90
23251;DHT22;11794;49.730;10.088;2022-12-15T08:06:58;-5.70;99.90
23251;DHT22;11794;49.730;10.088;2022-12-15T08:09:24;-5.70;99.90
23251;DHT22;11794;49.730;10.088;2022-12-15T08:11:50;-5.70;99.90
23251;DHT22;11794;49.730;10.088;2022-12-15T08:14:16;-5.70;99.90
23251;DHT22;11794;49.730;10.088;2022-12-15T08:16:41;-5.50;99.90
23251;DHT22;11794;49.730;10.088;2022-12-15T08:19:11;-5.50;99.90
23251;DHT22;11794;49.730;10.088;2022-12-15T08:21:38;-5.30;99.90
23251;DHT22;11794;49.730;10.088;2022-12-15T08:24:05;-5.20;99.90
23251;DHT22;11794;49.730;10.088;2022-12-15T08:26:32;-5.10;99.90
23251;DHT22;11794;49.730;10.088;2022-12-15T08:29:01;-5.00;99.90
23251;DHT22;11794;49.730;10.088;2022-12-15T08:31:28;-5.00;99.90
23251;DHT22;11794;49.730;10.088;2022-12-15T08:33:56;-4.90;99.90
23251;DHT22;11794;49.730;10.088;2022-12-15T08:36:22;-4.80;99.90
23251;DHT22;11794;49.730;10.088;2022-12-15T08:38:48;-4.70;99.90
23251;DHT22;11794;49.730;10.088;2022-12-15T08:41:19;-4.60;99.90
23251;DHT22;11794;49.730;10.088;2022-12-15T08:43:48;-4.50;99.90
23251;DHT22;11794;49.730;10.088;2022-12-15T08:46:14;-4.60;99.90
23251;DHT22;11794;49.730;10.088;2022-12-15T08:48:41;-4.80;99.90
23251;DHT22;11794;49.730;10.088;2022-12-15T08:51:06;-4.80;99.90
23251;DHT22;11794;49.730;10.088;2022-12-15T08:53:32;-4.60;99.90
23251;DHT22;11794;49.730;10.088;2022-12-15T08:56:03;-4.40;99.90
23251;DHT22;11794;49.730;10.088;2022-12-15T08:58:28;-4.00;99.90
23251;DHT22;11794;49.730;10.088;2022-12-15T09:01:03;-3.20;99.90
23251;DHT22;11794;49.730;10.088;2022-12-15T09:03:28;-2.10;99.90
23251;DHT22;11794;49.730;10.088;2022-12-15T09:05:54;-1.20;99.90
23251;DHT22;11794;49.730;10.088;2022-12-15T09:08:22;-0.20;99.90
23251;DHT22;11794;49.730;10.088;2022-12-15T09:10:47;0.70;99.90
23251;DHT22;11794;49.730;10.088;2022-12-15T09:13:13;1.10;99.90
23251;DHT22;11794;49.730;10.088;2022-12-15T09:15:39;1.40;99.90
23251;DHT22;11794;49.730;10.088;2022-12-15T09:18:07;1.70;99.90
23251;DHT22;11794;49.730;10.088;2022-12-15T09:20:33;2.20;99.90
23251;DHT22;11794;49.730;10.088;2022-12-15T09:22:59;3.10;99.90
23251;DHT22;11794;49.730;10.088;2022-12-15T09:25:24;3.70;99.90
23251;DHT22;11794;49.730;10.088;2022-12-15T09:27:50;4.10;99.90
23251;DHT22;11794;49.730;10.088;2022-12-15T09:30:15;4.60;99.90
23251;DHT22;11794;49.730;10.088;2022-12-15T09:32:41;4.70;99.90
23251;DHT22;11794;49.730;10.088;2022-12-15T09:35:06;4.80;99.90
23251;DHT22;11794;49.730;10.088;2022-12-15T09:37:32;5.20;99.90
23251;DHT22;11794;49.730;10.088;2022-12-15T09:39:57;5.50;99.90
23251;DHT22;11794;49.730;10.088;2022-12-15T09:42:26;5.30;99.90
23251;DHT22;11794;49.730;10.088;2022-12-15T09:47:36;4.50;99.90
23251;DHT22;11794;49.730;10.088;2022-12-15T09:50:08;3.90;99.90
23251;DHT22;11794;49.730;10.088;2022-12-15T09:53:01;3.50;99.90
23251;DHT22;11794;49.730;10.088;2022-12-15T09:55:30;3.20;99.90
23251;DHT22;11794;49.730;10.088;2022-12-15T09:58:05;3.40;99.90
23251;DHT22;11794;49.730;10.088;2022-12-15T10:00:47;3.40;99.90
23251;DHT22;11794;49.730;10.088;2022-12-15T10:03:58;3.70;99.90
23251;DHT22;11794;49.730;10.088;2022-12-15T10:06:31;4.10;99.90
23251;DHT22;11794;49.730;10.088;2022-12-15T10:09:03;4.50;99.90
23251;DHT22;11794;49.730;10.088;2022-12-15T10:11:46;4.60;99.90
23251;DHT22;11794;49.730;10.088;2022-12-15T10:14:21;4.90;99.90
23251;DHT22;11794;49.730;10.088;2022-12-15T10:22:26;4.60;99.90
23251;DHT22;11794;49.730;10.088;2022-12-15T10:24:54;5.00;99.90
23251;DHT22;11794;49.730;10.088;2022-12-15T10:30:08;6.30;99.90
23251;DHT22;11794;49.730;10.088;2022-12-15T10:33:10;6.50;99.90
23251;DHT22;11794;49.730;10.088;2022-12-15T10:35:39;6.50;99.90
23251;DHT22;11794;49.730;10.088;2022-12-15T10:38:42;6.20;99.90
23251;DHT22;11794;49.730;10.088;2022-12-15T10:41:31;6.20;99.90
23251;DHT22;11794;49.730;10.088;2022-12-15T10:43:57;6.30;99.90
23251;DHT22;11794;49.730;10.088;2022-12-15T10:46:27;5.70;99.90
23251;DHT22;11794;49.730;10.088;2022-12-15T10:48:58;5.50;99.90
23251;DHT22;11794;49.730;10.088;2022-12-15T10:51:34;6.00;99.90
23251;DHT22;11794;49.730;10.088;2022-12-15T10:56:31;7.20;99.90
23251;DHT22;11794;49.730;10.088;2022-12-15T10:59:00;7.60;99.90
23251;DHT22;11794;49.730;10.088;2022-12-15T11:01:29;8.00;99.90
23251;DHT22;11794;49.730;10.088;2022-12-15T11:03:56;8.50;99.90
23251;DHT22;11794;49.730;10.088;2022-12-15T11:06:28;8.20;99.90
23251;DHT22;11794;49.730;10.088;2022-12-15T11:09:26;8.10;99.90
23251;DHT22;11794;49.730;10.088;2022-12-15T11:11:52;8.10;99.90
23251;DHT22;11794;49.730;10.088;2022-12-15T11:14:46;7.90;99.90
23251;DHT22;11794;49.730;10.088;2022-12-15T11:17:16;7.60;99.90
23251;DHT22;11794;49.730;10.088;2022-12-15T11:19:59;7.70;99.90
23251;DHT22;11794;49.730;10.088;2022-12-15T11:22:49;7.20;99.90
23251;DHT22;11794;49.730;10.088;2022-12-15T11:27:59;7.50;99.90
23251;DHT22;11794;49.730;10.088;2022-12-15T11:30:37;7.60;99.90
23251;DHT22;11794;49.730;10.088;2022-12-15T11:33:07;7.50;99.90
23251;DHT22;11794;49.730;10.088;2022-12-15T11:36:02;7.10;99.90
23251;DHT22;11794;49.730;10.088;2022-12-15T11:38:57;7.20;99.90
23251;DHT22;11794;49.730;10.088;2022-12-15T11:44:27;7.20;99.90
23251;DHT22;11794;49.730;10.088;2022-12-15T11:52:47;6.00;99.90
23251;DHT22;11794;49.730;10.088;2022-12-15T12:04:24;6.90;99.90
23251;DHT22;11794;49.730;10.088;2022-12-15T12:07:24;6.90;99.90
23251;DHT22;11794;49.730;10.088;2022-12-15T12:10:04;6.50;99.90
23251;DHT22;11794;49.730;10.088;2022-12-15T12:12:43;5.60;99.90
23251;DHT22;11794;49.730;10.088;2022-12-15T12:15:52;5.40;99.90
23251;DHT22;11794;49.730;10.088;2022-12-15T12:18:27;5.50;99.90
23251;DHT22;11794;49.730;10.088;2022-12-15T12:21:04;5.20;99.90
23251;DHT22;11794;49.730;10.088;2022-12-15T12:29:02;4.20;99.90
23251;DHT22;11794;49.730;10.088;2022-12-15T12:33:58;2.80;99.90
23251;DHT22;11794;49.730;10.088;2022-12-15T12:36:25;2.70;99.90
23251;DHT22;11794;49.730;10.088;2022-12-15T12:38:53;2.90;99.90
23251;DHT22;11794;49.730;10.088;2022-12-15T12:41:30;3.00;99.90
23251;DHT22;11794;49.730;10.088;2022-12-15T12:44:00;2.80;99.90
23251;DHT22;11794;49.730;10.088;2022-12-15T12:47:05;2.40;99.90
23251;DHT22;11794;49.730;10.088;2022-12-15T12:49:38;1.90;99.90
23251;DHT22;11794;49.730;10.088;2022-12-15T12:52:24;1.60;99.90
23251;DHT22;11794;49.730;10.088;2022-12-15T12:55:22;1.40;99.90
23251;DHT22;11794;49.730;10.088;2022-12-15T12:57:51;1.00;99.90
23251;DHT22;11794;49.730;10.088;2022-12-15T13:00:25;0.90;99.90
23251;DHT22;11794;49.730;10.088;2022-12-15T13:05:27;0.70;99.90
23251;DHT22;11794;49.730;10.088;2022-12-15T13:10:24;0.00;99.90
23251;DHT22;11794;49.730;10.088;2022-12-15T13:12:53;-0.20;99.90
23251;DHT22;11794;49.730;10.088;2022-12-15T13:15:38;-0.30;99.90
23251;DHT22;11794;49.730;10.088;2022-12-15T13:18:10;-0.30;99.90
23251;DHT22;11794;49.730;10.088;2022-12-15T13:20:38;-0.20;99.90
23251;DHT22;11794;49.730;10.088;2022-12-15T13:23:39;-0.20;99.90
23251;DHT22;11794;49.730;10.088;2022-12-15T13:31:23;-0.30;99.90
23251;DHT22;11794;49.730;10.088;2022-12-15T13:44:37;-0.20;99.90
23251;DHT22;11794;49.730;10.088;2022-12-15T13:47:25;-0.20;99.90
23251;DHT22;11794;49.730;10.088;2022-12-15T13:50:00;0.00;99.90
23251;DHT22;11794;49.730;10.088;2022-12-15T13:52:34;0.00;99.90
23251;DHT22;11794;49.730;10.088;2022-12-15T13:55:04;0.30;99.90
23251;DHT22;11794;49.730;10.088;2022-12-15T13:57:33;0.60;99.90
23251;DHT22;11794;49.730;10.088;2022-12-15T14:00:10;0.70;99.90
23251;DHT22;11794;49.730;10.088;2022-12-15T14:02:43;0.90;99.90
23251;DHT22;11794;49.730;10.088;2022-12-15T14:07:56;1.20;99.90
23251;DHT22;11794;49.730;10.088;2022-12-15T14:13:27;1.40;99.90
23251;DHT22;11794;49.730;10.088;2022-12-15T14:16:20;2.10;99.90
23251;DHT22;11794;49.730;10.088;2022-12-15T14:19:22;2.70;99.90
23251;DHT22;11794;49.730;10.088;2022-12-15T14:21:56;2.50;99.90
23251;DHT22;11794;49.730;10.088;2022-12-15T14:24:23;2.30;99.90
23251;DHT22;11794;49.730;10.088;2022-12-15T14:26:49;2.10;99.90
23251;DHT22;11794;49.730;10.088;2022-12-15T14:29:15;2.10;99.90
23251;DHT22;11794;49.730;10.088;2022-12-15T14:31:45;1.90;99.90
23251;DHT22;11794;49.730;10.088;2022-12-15T14:34:22;1.60;99.90
23251;DHT22;11794;49.730;10.088;2022-12-15T14:36:50;1.10;99.90
23251;DHT22;11794;49.730;10.088;2022-12-15T14:41:55;0.00;99.90
23251;DHT22;11794;49.730;10.088;2022-12-15T14:44:48;-0.50;99.90
23251;DHT22;11794;49.730;10.088;2022-12-15T14:47:26;-1.00;99.90
23251;DHT22;11794;49.730;10.088;2022-12-15T14:49:52;-1.30;99.90
23251;DHT22;11794;49.730;10.088;2022-12-15T14:52:26;-1.60;99.90
23251;DHT22;11794;49.730;10.088;2022-12-15T14:54:55;-1.70;99.90
23251;DHT22;11794;49.730;10.088;2022-12-15T14:59:49;-1.80;99.90
23251;DHT22;11794;49.730;10.088;2022-12-15T15:05:00;-2.00;99.90
23251;DHT22;11794;49.730;10.088;2022-12-15T15:07:32;-2.10;99.90
23251;DHT22;11794;49.730;10.088;2022-12-15T15:09:59;-2.10;99.90
23251;DHT22;11794;49.730;10.088;2022-12-15T15:12:43;-2.30;99.90
23251;DHT22;11794;49.730;10.088;2022-12-15T15:15:18;-2.50;99.90
23251;DHT22;11794;49.730;10.088;2022-12-15T15:17:55;-2.50;99.90
23251;DHT22;11794;49.730;10.088;2022-12-15T15:20:26;-2.60;99.90
23251;DHT22;11794;49.730;10.088;2022-12-15T15:23:16;-2.60;99.90
23251;DHT22;11794;49.730;10.088;2022-12-15T15:25:57;-2.60;99.90
23251;DHT22;11794;49.730;10.088;2022-12-15T15:28:39;-2.70;99.90
23251;DHT22;11794;49.730;10.088;2022-12-15T15:33:49;-2.70;99.90
23251;DHT22;11794;49.730;10.088;2022-12-15T15:36:15;-2.60;99.90
23251;DHT22;11794;49.730;10.088;2022-12-15T15:38:41;-2.50;99.90
23251;DHT22;11794;49.730;10.088;2022-12-15T15:43:43;-2.40;99.90
23251;DHT22;11794;49.730;10.088;2022-12-15T15:46:15;-2.30;99.90
23251;DHT22;11794;49.730;10.088;2022-12-15T15:48:46;-2.30;99.90
23251;DHT22;11794;49.730;10.088;2022-12-15T15:51:13;-2.30;99.90
23251;DHT22;11794;49.730;10.088;2022-12-15T15:53:39;-2.30;99.90
23251;DHT22;11794;49.730;10.088;2022-12-15T15:56:07;-2.30;99.90
23251;DHT22;11794;49.730;10.088;2022-12-15T15:58:34;-2.20;99.90
23251;DHT22;11794;49.730;10.088;2022-12-15T16:01:00;-2.20;99.90
23251;DHT22;11794;49.730;10.088;2022-12-15T16:03:25;-2.20;99.90
23251;DHT22;11794;49.730;10.088;2022-12-15T16:05:51;-2.10;99.90
23251;DHT22;11794;49.730;10.088;2022-12-15T16:08:20;-2.10;99.90
23251;DHT22;11794;49.730;10.088;2022-12-15T16:10:47;-2.10;99.90
23251;DHT22;11794;49.730;10.088;2022-12-15T16:13:17;-2.20;99.90
23251;DHT22;11794;49.730;10.088;2022-12-15T16:15:44;-2.20;99.90
23251;DHT22;11794;49.730;10.088;2022-12-15T16:18:10;-2.30;99.90
23251;DHT22;11794;49.730;10.088;2022-12-15T16:20:36;-2.20;99.90
23251;DHT22;11794;49.730;10.088;2022-12-15T16:23:20;-2.20;99.90
23251;DHT22;11794;49.730;10.088;2022-12-15T16:25:51;-2.30;99.90
23251;DHT22;11794;49.730;10.088;2022-12-15T16:28:22;-2.30;99.90
23251;DHT22;11794;49.730;10.088;2022-12-15T16:30:48;-2.40;99.90
23251;DHT22;11794;49.730;10.088;2022-12-15T16:33:14;-2.40;99.90
23251;DHT22;11794;49.730;10.088;2022-12-15T16:35:41;-2.30;99.90
23251;DHT22;11794;49.730;10.088;2022-12-15T16:38:20;-2.30;99.90
23251;DHT22;11794;49.730;10.088;2022-12-15T16:40:46;-2.30;99.90
23251;DHT22;11794;49.730;10.088;2022-12-15T16:43:17;-2.30;99.90
23251;DHT22;11794;49.730;10.088;2022-12-15T16:45:44;-2.30;99.90
23251;DHT22;11794;49.730;10.088;2022-12-15T16:48:10;-2.30;99.90
23251;DHT22;11794;49.730;10.088;2022-12-15T16:50:38;-2.30;99.90
23251;DHT22;11794;49.730;10.088;2022-12-15T16:53:05;-2.40;99.90
23251;DHT22;11794;49.730;10.088;2022-12-15T16:55:35;-2.50;99.90
23251;DHT22;11794;49.730;10.088;2022-12-15T16:58:02;-2.40;99.90
23251;DHT22;11794;49.730;10.088;2022-12-15T17:00:31;-2.40;99.90
23251;DHT22;11794;49.730;10.088;2022-12-15T17:02:57;-2.50;99.90
23251;DHT22;11794;49.730;10.088;2022-12-15T17:05:30;-2.60;99.90
23251;DHT22;11794;49.730;10.088;2022-12-15T17:07:57;-2.50;99.90
23251;DHT22;11794;49.730;10.088;2022-12-15T17:10:25;-2.50;99.90
23251;DHT22;11794;49.730;10.088;2022-12-15T17:12:54;-2.50;99.90
23251;DHT22;11794;49.730;10.088;2022-12-15T17:15:26;-2.60;99.90
23251;DHT22;11794;49.730;10.088;2022-12-15T17:17:53;-2.70;99.90
23251;DHT22;11794;49.730;10.088;2022-12-15T17:20:22;-2.80;99.90
23251;DHT22;11794;49.730;10.088;2022-12-15T17:22:50;-2.90;99.90
23251;DHT22;11794;49.730;10.088;2022-12-15T17:25:21;-2.90;99.90
23251;DHT22;11794;49.730;10.088;2022-12-15T17:27:50;-2.90;99.90
23251;DHT22;11794;49.730;10.088;2022-12-15T17:30:16;-3.00;99.90
23251;DHT22;11794;49.730;10.088;2022-12-15T17:32:42;-3.00;99.90
23251;DHT22;11794;49.730;10.088;2022-12-15T17:35:09;-3.00;99.90
23251;DHT22;11794;49.730;10.088;2022-12-15T17:37:35;-2.90;99.90